sensor_id;sensor_type;location;lat;lon;timestamp;temperature;humidity
26641;DHT22;14269;47.358;0.724;2024-03-23T00:53:53;17.0;43.0
26641;DHT22;14269;47.358;0.724;2024-03-23T00:56:25;17.0;42.0
26641;DHT22;14269;47.358;0.724;2024-03-23T00:58:56;17.0;42.0
26641;DHT22;14269;47.358;0.724;2024-03-23T01:01:28;18.0;42.0
26641;DHT22;14269;47.358;0.724;2024-03-23T01:04:00;18.0;42.0
26641;DHT22;14269;47.358;0.724;2024-03-23T01:06:31;17.0;43.0
26641;DHT22;14269;47.358;0.724;2024-03-23T01:09:03;17.0;42.0
26641;DHT22;14269;47.358;0.724;2024-03-23T01:11:35;17.0;43.0
26641;DHT22;14269;47.358;0.724;2024-03-23T01:14:06;17.0;42.0
26641;DHT22;14269;47.358;0.724;2024-03-23T01:16:38;17.0;43.0
26641;DHT22;14269;47.358;0.724;2024-03-23T01:19:10;17.0;43.0
26641;DHT22;14269;47.358;0.724;2024-03-23T01:21:43;17.0;43.0
26641;DHT22;14269;47.358;0.724;2024-03-23T01:24:23;17.0;43.0
26641;DHT22;14269;47.358;0.724;2024-03-23T01:26:55;17.0;43.0
26641;DHT22;14269;47.358;0.724;2024-03-23T01:29:26;17.0;43.0
26641;DHT22;14269;47.358;0.724;2024-03-23T01:31:58;17.0;44.0
26641;DHT22;14269;47.358;0.724;2024-03-23T01:34:30;17.0;43.0
26641;DHT22;14269;47.358;0.724;2024-03-23T01:37:02;17.0;44.0
26641;DHT22;14269;47.358;0.724;2024-03-23T01:39:33;17.0;44.0
26641;DHT22;14269;47.358;0.724;2024-03-23T01:42:05;17.0;44.0
26641;DHT22;14269;47.358;0.724;2024-03-23T01:44:36;17.0;44.0
26641;DHT22;14269;47.358;0.724;2024-03-23T01:47:08;17.0;44.0
26641;DHT22;14269;47.358;0.724;2024-03-23T01:49:50;17.0;44.0
26641;DHT22;14269;47.358;0.724;2024-03-23T01:52:31;17.0;44.0
26641;DHT22;14269;47.358;0.724;2024-03-23T01:55:04;17.0;44.0
26641;DHT22;14269;47.358;0.724;2024-03-23T01:57:35;17.0;44.0
26641;DHT22;14269;47.358;0.724;2024-03-23T02:00:07;17.0;44.0
26641;DHT22;14269;47.358;0.724;2024-03-23T02:02:48;17.0;44.0
26641;DHT22;14269;47.358;0.724;2024-03-23T02:05:20;17.0;44.0
26641;DHT22;14269;47.358;0.724;2024-03-23T02:07:51;17.0;44.0
26641;DHT22;14269;47.358;0.724;2024-03-23T02:10:23;17.0;44.0
26641;DHT22;14269;47.358;0.724;2024-03-23T02:12:55;17.0;44.0
26641;DHT22;14269;47.358;0.724;2024-03-23T02:15:26;17.0;44.0
26641;DHT22;14269;47.358;0.724;2024-03-23T02:17:58;17.0;44.0
26641;DHT22;14269;47.358;0.724;2024-03-23T02:20:30;17.0;44.0
26641;DHT22;14269;47.358;0.724;2024-03-23T02:23:01;17.0;44.0
26641;DHT22;14269;47.358;0.724;2024-03-23T02:25:33;16.0;44.0
26641;DHT22;14269;47.358;0.724;2024-03-23T02:28:05;17.0;44.0
26641;DHT22;14269;47.358;0.724;2024-03-23T02:30:36;17.0;44.0
26641;DHT22;14269;47.358;0.724;2024-03-23T02:33:08;17.0;44.0
26641;DHT22;14269;47.358;0.724;2024-03-23T02:35:39;16.0;44.0
26641;DHT22;14269;47.358;0.724;2024-03-23T02:38:11;16.0;44.0
26641;DHT22;14269;47.358;0.724;2024-03-23T02:40:43;16.0;44.0
26641;DHT22;14269;47.358;0.724;2024-03-23T02:43:14;17.0;44.0
26641;DHT22;14269;47.358;0.724;2024-03-23T02:45:46;16.0;44.0
26641;DHT22;14269;47.358;0.724;2024-03-23T02:48:18;16.0;44.0
26641;DHT22;14269;47.358;0.724;2024-03-23T02:50:49;16.0;43.0
26641;DHT22;14269;47.358;0.724;2024-03-23T02:53:22;17.0;43.0
26641;DHT22;14269;47.358;0.724;2024-03-23T02:55:53;16.0;43.0
26641;DHT22;14269;47.358;0.724;2024-03-23T02:58:24;17.0;43.0
26641;DHT22;14269;47.358;0.724;2024-03-23T03:00:56;17.0;43.0
26641;DHT22;14269;47.358;0.724;2024-03-23T03:03:27;17.0;43.0
26641;DHT22;14269;47.358;0.724;2024-03-23T03:05:59;17.0;43.0
26641;DHT22;14269;47.358;0.724;2024-03-23T03:08:31;17.0;43.0
26641;DHT22;14269;47.358;0.724;2024-03-23T03:11:03;16.0;42.0
26641;DHT22;14269;47.358;0.724;2024-03-23T03:13:34;17.0;42.0
26641;DHT22;14269;47.358;0.724;2024-03-23T03:16:08;17.0;42.0
26641;DHT22;14269;47.358;0.724;2024-03-23T03:18:48;16.0;42.0
26641;DHT22;14269;47.358;0.724;2024-03-23T03:21:19;16.0;43.0
26641;DHT22;14269;47.358;0.724;2024-03-23T03:23:51;16.0;43.0
26641;DHT22;14269;47.358;0.724;2024-03-23T03:26:23;16.0;42.0
26641;DHT22;14269;47.358;0.724;2024-03-23T03:28:54;16.0;42.0
26641;DHT22;14269;47.358;0.724;2024-03-23T03:31:26;16.0;43.0
26641;DHT22;14269;47.358;0.724;2024-03-23T03:33:57;16.0;42.0
26641;DHT22;14269;47.358;0.724;2024-03-23T03:36:29;16.0;42.0
26641;DHT22;14269;47.358;0.724;2024-03-23T03:39:03;16.0;43.0
26641;DHT22;14269;47.358;0.724;2024-03-23T03:41:42;16.0;43.0
26641;DHT22;14269;47.358;0.724;2024-03-23T03:44:14;16.0;43.0
26641;DHT22;14269;47.358;0.724;2024-03-23T03:46:46;16.0;42.0
26641;DHT22;14269;47.358;0.724;2024-03-23T03:49:17;16.0;42.0
26641;DHT22;14269;47.358;0.724;2024-03-23T03:51:49;16.0;42.0
26641;DHT22;14269;47.358;0.724;2024-03-23T03:54:21;16.0;41.0
26641;DHT22;14269;47.358;0.724;2024-03-23T03:56:53;16.0;42.0
26641;DHT22;14269;47.358;0.724;2024-03-23T03:59:24;16.0;42.0
26641;DHT22;14269;47.358;0.724;2024-03-23T04:01:55;16.0;42.0
26641;DHT22;14269;47.358;0.724;2024-03-23T04:04:27;16.0;42.0
26641;DHT22;14269;47.358;0.724;2024-03-23T04:06:59;16.0;42.0
26641;DHT22;14269;47.358;0.724;2024-03-23T04:09:31;16.0;43.0
26641;DHT22;14269;47.358;0.724;2024-03-23T04:12:02;16.0;43.0
26641;DHT22;14269;47.358;0.724;2024-03-23T04:14:34;16.0;43.0
26641;DHT22;14269;47.358;0.724;2024-03-23T04:17:06;16.0;43.0
26641;DHT22;14269;47.358;0.724;2024-03-23T04:19:37;16.0;43.0
26641;DHT22;14269;47.358;0.724;2024-03-23T04:22:09;16.0;42.0
26641;DHT22;14269;47.358;0.724;2024-03-23T04:24:40;16.0;43.0
26641;DHT22;14269;47.358;0.724;2024-03-23T04:27:12;16.0;43.0
26641;DHT22;14269;47.358;0.724;2024-03-23T04:29:47;16.0;43.0
26641;DHT22;14269;47.358;0.724;2024-03-23T04:32:26;16.0;42.0
26641;DHT22;14269;47.358;0.724;2024-03-23T04:34:57;16.0;43.0
26641;DHT22;14269;47.358;0.724;2024-03-23T04:37:29;16.0;43.0
26641;DHT22;14269;47.358;0.724;2024-03-23T04:40:01;16.0;43.0
26641;DHT22;14269;47.358;0.724;2024-03-23T04:42:32;16.0;43.0
26641;DHT22;14269;47.358;0.724;2024-03-23T04:45:06;16.0;43.0
26641;DHT22;14269;47.358;0.724;2024-03-23T04:47:45;16.0;43.0
26641;DHT22;14269;47.358;0.724;2024-03-23T04:50:18;16.0;43.0
26641;DHT22;14269;47.358;0.724;2024-03-23T04:52:59;16.0;43.0
26641;DHT22;14269;47.358;0.724;2024-03-23T04:55:31;16.0;42.0
26641;DHT22;14269;47.358;0.724;2024-03-23T04:58:03;16.0;42.0
26641;DHT22;14269;47.358;0.724;2024-03-23T05:00:44;16.0;43.0
26641;DHT22;14269;47.358;0.724;2024-03-23T05:03:15;16.0;42.0
26641;DHT22;14269;47.358;0.724;2024-03-23T05:05:48;16.0;43.0
26641;DHT22;14269;47.358;0.724;2024-03-23T05:08:19;16.0;43.0
26641;DHT22;14269;47.358;0.724;2024-03-23T05:10:50;16.0;42.0
26641;DHT22;14269;47.358;0.724;2024-03-23T05:13:22;16.0;42.0
26641;DHT22;14269;47.358;0.724;2024-03-23T05:15:54;16.0;42.0
26641;DHT22;14269;47.358;0.724;2024-03-23T05:18:26;16.0;42.0
26641;DHT22;14269;47.358;0.724;2024-03-23T05:21:07;16.0;43.0
26641;DHT22;14269;47.358;0.724;2024-03-23T05:23:39;16.0;43.0
26641;DHT22;14269;47.358;0.724;2024-03-23T05:26:10;16.0;42.0
26641;DHT22;14269;47.358;0.724;2024-03-23T05:28:42;16.0;43.0
26641;DHT22;14269;47.358;0.724;2024-03-23T05:31:24;16.0;43.0
26641;DHT22;14269;47.358;0.724;2024-03-23T05:33:56;16.0;42.0
26641;DHT22;14269;47.358;0.724;2024-03-23T05:36:27;16.0;43.0
26641;DHT22;14269;47.358;0.724;2024-03-23T05:38:59;16.0;43.0
26641;DHT22;14269;47.358;0.724;2024-03-23T05:41:30;16.0;43.0
26641;DHT22;14269;47.358;0.724;2024-03-23T05:44:02;16.0;43.0
26641;DHT22;14269;47.358;0.724;2024-03-23T05:46:34;15.0;43.0
26641;DHT22;14269;47.358;0.724;2024-03-23T05:49:05;15.0;43.0
26641;DHT22;14269;47.358;0.724;2024-03-23T05:51:37;16.0;43.0
26641;DHT22;14269;47.358;0.724;2024-03-23T05:54:09;16.0;43.0
26641;DHT22;14269;47.358;0.724;2024-03-23T05:56:40;16.0;42.0
26641;DHT22;14269;47.358;0.724;2024-03-23T05:59:12;16.0;43.0
26641;DHT22;14269;47.358;0.724;2024-03-23T06:01:44;16.0;42.0
26641;DHT22;14269;47.358;0.724;2024-03-23T06:04:15;16.0;43.0
26641;DHT22;14269;47.358;0.724;2024-03-23T06:06:47;16.0;42.0
26641;DHT22;14269;47.358;0.724;2024-03-23T06:09:19;16.0;42.0
26641;DHT22;14269;47.358;0.724;2024-03-23T06:11:50;16.0;42.0
26641;DHT22;14269;47.358;0.724;2024-03-23T06:14:22;16.0;42.0
26641;DHT22;14269;47.358;0.724;2024-03-23T06:16:53;16.0;42.0
26641;DHT22;14269;47.358;0.724;2024-03-23T06:19:27;16.0;42.0
26641;DHT22;14269;47.358;0.724;2024-03-23T06:22:07;16.0;42.0
26641;DHT22;14269;47.358;0.724;2024-03-23T06:24:39;16.0;42.0
26641;DHT22;14269;47.358;0.724;2024-03-23T06:27:10;16.0;42.0
26641;DHT22;14269;47.358;0.724;2024-03-23T06:29:42;16.0;42.0
26641;DHT22;14269;47.358;0.724;2024-03-23T06:32:13;16.0;42.0
26641;DHT22;14269;47.358;0.724;2024-03-23T06:34:45;16.0;42.0
26641;DHT22;14269;47.358;0.724;2024-03-23T06:37:17;16.0;42.0
26641;DHT22;14269;47.358;0.724;2024-03-23T06:39:48;17.0;41.0
26641;DHT22;14269;47.358;0.724;2024-03-23T06:42:20;17.0;41.0
26641;DHT22;14269;47.358;0.724;2024-03-23T06:44:52;17.0;40.0
26641;DHT22;14269;47.358;0.724;2024-03-23T06:47:24;17.0;39.0
26641;DHT22;14269;47.358;0.724;2024-03-23T06:50:06;17.0;39.0
26641;DHT22;14269;47.358;0.724;2024-03-23T06:52:47;17.0;39.0
26641;DHT22;14269;47.358;0.724;2024-03-23T06:55:18;17.0;39.0
26641;DHT22;14269;47.358;0.724;2024-03-23T06:57:50;17.0;41.0
26641;DHT22;14269;47.358;0.724;2024-03-23T07:00:22;17.0;41.0
26641;DHT22;14269;47.358;0.724;2024-03-23T07:02:53;17.0;40.0
26641;DHT22;14269;47.358;0.724;2024-03-23T07:05:25;17.0;39.0
26641;DHT22;14269;47.358;0.724;2024-03-23T07:07:57;17.0;39.0
26641;DHT22;14269;47.358;0.724;2024-03-23T07:10:28;17.0;40.0
26641;DHT22;14269;47.358;0.724;2024-03-23T07:13:00;17.0;39.0
26641;DHT22;14269;47.358;0.724;2024-03-23T07:15:32;18.0;39.0
26641;DHT22;14269;47.358;0.724;2024-03-23T07:18:03;18.0;39.0
26641;DHT22;14269;47.358;0.724;2024-03-23T07:20:35;18.0;38.0
26641;DHT22;14269;47.358;0.724;2024-03-23T07:23:07;18.0;38.0
26641;DHT22;14269;47.358;0.724;2024-03-23T07:25:38;18.0;37.0
26641;DHT22;14269;47.358;0.724;2024-03-23T07:28:10;19.0;37.0
26641;DHT22;14269;47.358;0.724;2024-03-23T07:30:41;19.0;37.0
26641;DHT22;14269;47.358;0.724;2024-03-23T07:33:13;19.0;37.0
26641;DHT22;14269;47.358;0.724;2024-03-23T07:35:45;19.0;36.0
26641;DHT22;14269;47.358;0.724;2024-03-23T07:38:16;19.0;35.0
26641;DHT22;14269;47.358;0.724;2024-03-23T07:40:50;19.0;36.0
26641;DHT22;14269;47.358;0.724;2024-03-23T07:43:30;19.0;36.0
26641;DHT22;14269;47.358;0.724;2024-03-23T07:46:03;19.0;35.0
26641;DHT22;14269;47.358;0.724;2024-03-23T07:48:43;20.0;35.0
26641;DHT22;14269;47.358;0.724;2024-03-23T07:51:17;20.0;35.0
26641;DHT22;14269;47.358;0.724;2024-03-23T07:53:57;20.0;35.0
26641;DHT22;14269;47.358;0.724;2024-03-23T07:56:28;20.0;34.0
26641;DHT22;14269;47.358;0.724;2024-03-23T07:59:00;20.0;34.0
26641;DHT22;14269;47.358;0.724;2024-03-23T08:01:32;21.0;34.0
26641;DHT22;14269;47.358;0.724;2024-03-23T08:04:03;20.0;34.0
26641;DHT22;14269;47.358;0.724;2024-03-23T08:06:35;20.0;34.0
26641;DHT22;14269;47.358;0.724;2024-03-23T08:09:06;21.0;33.0
26641;DHT22;14269;47.358;0.724;2024-03-23T08:11:39;21.0;33.0
26641;DHT22;14269;47.358;0.724;2024-03-23T08:14:10;21.0;32.0
26641;DHT22;14269;47.358;0.724;2024-03-23T08:16:41;21.0;31.0
26641;DHT22;14269;47.358;0.724;2024-03-23T08:19:23;22.0;31.0
26641;DHT22;14269;47.358;0.724;2024-03-23T08:21:55;22.0;32.0
26641;DHT22;14269;47.358;0.724;2024-03-23T08:24:26;22.0;31.0
26641;DHT22;14269;47.358;0.724;2024-03-23T08:26:58;22.0;30.0
26641;DHT22;14269;47.358;0.724;2024-03-23T08:29:30;22.0;30.0
26641;DHT22;14269;47.358;0.724;2024-03-23T08:32:01;22.0;31.0
26641;DHT22;14269;47.358;0.724;2024-03-23T08:34:33;22.0;31.0
26641;DHT22;14269;47.358;0.724;2024-03-23T08:37:05;22.0;31.0
26641;DHT22;14269;47.358;0.724;2024-03-23T08:39:36;22.0;31.0
26641;DHT22;14269;47.358;0.724;2024-03-23T08:42:08;21.0;32.0
26641;DHT22;14269;47.358;0.724;2024-03-23T08:44:40;21.0;32.0
26641;DHT22;14269;47.358;0.724;2024-03-23T08:47:21;21.0;32.0
26641;DHT22;14269;47.358;0.724;2024-03-23T08:49:53;21.0;31.0
26641;DHT22;14269;47.358;0.724;2024-03-23T08:52:27;21.0;31.0
26641;DHT22;14269;47.358;0.724;2024-03-23T08:55:07;22.0;31.0
26641;DHT22;14269;47.358;0.724;2024-03-23T08:57:48;21.0;30.0
26641;DHT22;14269;47.358;0.724;2024-03-23T09:00:20;21.0;31.0
26641;DHT22;14269;47.358;0.724;2024-03-23T09:02:51;22.0;30.0
26641;DHT22;14269;47.358;0.724;2024-03-23T09:05:24;22.0;31.0
26641;DHT22;14269;47.358;0.724;2024-03-23T09:07:55;22.0;30.0
26641;DHT22;14269;47.358;0.724;2024-03-23T09:10:26;22.0;30.0
26641;DHT22;14269;47.358;0.724;2024-03-23T09:12:58;23.0;28.0
26641;DHT22;14269;47.358;0.724;2024-03-23T09:15:31;24.0;28.0
26641;DHT22;14269;47.358;0.724;2024-03-23T09:18:11;24.0;28.0
26641;DHT22;14269;47.358;0.724;2024-03-23T09:20:43;23.0;26.0
26641;DHT22;14269;47.358;0.724;2024-03-23T09:23:15;23.0;27.0
26641;DHT22;14269;47.358;0.724;2024-03-23T09:25:46;22.0;28.0
26641;DHT22;14269;47.358;0.724;2024-03-23T09:28:18;23.0;29.0
26641;DHT22;14269;47.358;0.724;2024-03-23T09:30:52;23.0;28.0
26641;DHT22;14269;47.358;0.724;2024-03-23T09:33:32;25.0;26.0
26641;DHT22;14269;47.358;0.724;2024-03-23T09:36:04;23.0;27.0
26641;DHT22;14269;47.358;0.724;2024-03-23T09:38:35;23.0;27.0
26641;DHT22;14269;47.358;0.724;2024-03-23T09:41:07;24.0;28.0
26641;DHT22;14269;47.358;0.724;2024-03-23T09:43:52;24.0;27.0
26641;DHT22;14269;47.358;0.724;2024-03-23T09:46:34;24.0;25.0
26641;DHT22;14269;47.358;0.724;2024-03-23T09:49:12;24.0;25.0
26641;DHT22;14269;47.358;0.724;2024-03-23T09:51:44;24.0;28.0
26641;DHT22;14269;47.358;0.724;2024-03-23T09:54:15;24.0;27.0
26641;DHT22;14269;47.358;0.724;2024-03-23T09:56:47;23.0;26.0
26641;DHT22;14269;47.358;0.724;2024-03-23T09:59:18;23.0;26.0
26641;DHT22;14269;47.358;0.724;2024-03-23T10:01:50;23.0;27.0
26641;DHT22;14269;47.358;0.724;2024-03-23T10:04:37;23.0;26.0
26641;DHT22;14269;47.358;0.724;2024-03-23T10:07:14;22.0;27.0
26641;DHT22;14269;47.358;0.724;2024-03-23T10:09:56;23.0;27.0
26641;DHT22;14269;47.358;0.724;2024-03-23T10:12:27;22.0;28.0
26641;DHT22;14269;47.358;0.724;2024-03-23T10:14:58;23.0;28.0
26641;DHT22;14269;47.358;0.724;2024-03-23T10:17:30;22.0;27.0
26641;DHT22;14269;47.358;0.724;2024-03-23T10:20:02;22.0;27.0
26641;DHT22;14269;47.358;0.724;2024-03-23T10:22:37;23.0;27.0
26641;DHT22;14269;47.358;0.724;2024-03-23T10:25:15;23.0;25.0
26641;DHT22;14269;47.358;0.724;2024-03-23T10:27:58;22.0;26.0
26641;DHT22;14269;47.358;0.724;2024-03-23T10:30:39;23.0;26.0
26641;DHT22;14269;47.358;0.724;2024-03-23T10:33:11;23.0;25.0
26641;DHT22;14269;47.358;0.724;2024-03-23T10:35:42;22.0;26.0
26641;DHT22;14269;47.358;0.724;2024-03-23T10:38:14;23.0;25.0
26641;DHT22;14269;47.358;0.724;2024-03-23T10:40:45;23.0;25.0
26641;DHT22;14269;47.358;0.724;2024-03-23T10:43:17;22.0;25.0
26641;DHT22;14269;47.358;0.724;2024-03-23T10:45:49;23.0;25.0
26641;DHT22;14269;47.358;0.724;2024-03-23T10:48:20;23.0;24.0
26641;DHT22;14269;47.358;0.724;2024-03-23T10:50:53;23.0;23.0
26641;DHT22;14269;47.358;0.724;2024-03-23T10:53:26;22.0;24.0
26641;DHT22;14269;47.358;0.724;2024-03-23T10:56:06;22.0;24.0
26641;DHT22;14269;47.358;0.724;2024-03-23T10:58:49;23.0;24.0
26641;DHT22;14269;47.358;0.724;2024-03-23T11:01:29;23.0;24.0
26641;DHT22;14269;47.358;0.724;2024-03-23T11:04:00;23.0;24.0
26641;DHT22;14269;47.358;0.724;2024-03-23T11:06:34;22.0;24.0
26641;DHT22;14269;47.358;0.724;2024-03-23T11:09:38;22.0;24.0
26641;DHT22;14269;47.358;0.724;2024-03-23T11:12:33;24.0;24.0
26641;DHT22;14269;47.358;0.724;2024-03-23T11:15:12;24.0;23.0
26641;DHT22;14269;47.358;0.724;2024-03-23T11:18:07;25.0;23.0
26641;DHT22;14269;47.358;0.724;2024-03-23T11:20:41;24.0;22.0
26641;DHT22;14269;47.358;0.724;2024-03-23T11:23:27;24.0;22.0
26641;DHT22;14269;47.358;0.724;2024-03-23T11:26:07;23.0;24.0
26641;DHT22;14269;47.358;0.724;2024-03-23T11:28:46;23.0;22.0
26641;DHT22;14269;47.358;0.724;2024-03-23T11:31:18;24.0;23.0
26641;DHT22;14269;47.358;0.724;2024-03-23T11:34:03;25.0;21.0
26641;DHT22;14269;47.358;0.724;2024-03-23T11:36:42;25.0;22.0
26641;DHT22;14269;47.358;0.724;2024-03-23T11:39:15;24.0;22.0
26641;DHT22;14269;47.358;0.724;2024-03-23T11:41:56;24.0;22.0
26641;DHT22;14269;47.358;0.724;2024-03-23T11:44:37;24.0;22.0
26641;DHT22;14269;47.358;0.724;2024-03-23T11:47:09;25.0;22.0
26641;DHT22;14269;47.358;0.724;2024-03-23T11:49:50;24.0;21.0
26641;DHT22;14269;47.358;0.724;2024-03-23T11:52:22;23.0;22.0
26641;DHT22;14269;47.358;0.724;2024-03-23T11:55:03;21.0;24.0
26641;DHT22;14269;47.358;0.724;2024-03-23T11:57:35;21.0;26.0
26641;DHT22;14269;47.358;0.724;2024-03-23T12:00:21;21.0;25.0
26641;DHT22;14269;47.358;0.724;2024-03-23T12:03:00;21.0;25.0
26641;DHT22;14269;47.358;0.724;2024-03-23T12:05:40;22.0;25.0
26641;DHT22;14269;47.358;0.724;2024-03-23T12:08:17;23.0;23.0
26641;DHT22;14269;47.358;0.724;2024-03-23T12:11:05;23.0;24.0
26641;DHT22;14269;47.358;0.724;2024-03-23T12:13:46;23.0;23.0
26641;DHT22;14269;47.358;0.724;2024-03-23T12:16:28;22.0;23.0
26641;DHT22;14269;47.358;0.724;2024-03-23T12:19:05;22.0;23.0
26641;DHT22;14269;47.358;0.724;2024-03-23T12:21:41;23.0;23.0
26641;DHT22;14269;47.358;0.724;2024-03-23T12:24:12;24.0;21.0
26641;DHT22;14269;47.358;0.724;2024-03-23T12:26:44;23.0;21.0
26641;DHT22;14269;47.358;0.724;2024-03-23T12:29:16;23.0;21.0
26641;DHT22;14269;47.358;0.724;2024-03-23T12:32:00;22.0;23.0
26641;DHT22;14269;47.358;0.724;2024-03-23T12:34:40;23.0;23.0
26641;DHT22;14269;47.358;0.724;2024-03-23T12:37:21;23.0;22.0
26641;DHT22;14269;47.358;0.724;2024-03-23T12:39:53;24.0;21.0
26641;DHT22;14269;47.358;0.724;2024-03-23T12:42:24;23.0;21.0
26641;DHT22;14269;47.358;0.724;2024-03-23T12:44:56;21.0;22.0
26641;DHT22;14269;47.358;0.724;2024-03-23T12:47:28;21.0;23.0
26641;DHT22;14269;47.358;0.724;2024-03-23T12:49:59;22.0;23.0
26641;DHT22;14269;47.358;0.724;2024-03-23T12:52:31;22.0;23.0
26641;DHT22;14269;47.358;0.724;2024-03-23T12:55:04;22.0;24.0
26641;DHT22;14269;47.358;0.724;2024-03-23T12:57:44;23.0;23.0
26641;DHT22;14269;47.358;0.724;2024-03-23T13:00:17;22.0;24.0
26641;DHT22;14269;47.358;0.724;2024-03-23T13:02:48;22.0;24.0
26641;DHT22;14269;47.358;0.724;2024-03-23T13:05:19;22.0;24.0
26641;DHT22;14269;47.358;0.724;2024-03-23T13:07:51;22.0;24.0
26641;DHT22;14269;47.358;0.724;2024-03-23T13:10:23;21.0;25.0
26641;DHT22;14269;47.358;0.724;2024-03-23T13:12:54;22.0;24.0
26641;DHT22;14269;47.358;0.724;2024-03-23T13:15:26;22.0;23.0
26641;DHT22;14269;47.358;0.724;2024-03-23T13:17:59;22.0;24.0
26641;DHT22;14269;47.358;0.724;2024-03-23T13:20:39;22.0;23.0
26641;DHT22;14269;47.358;0.724;2024-03-23T13:23:11;22.0;23.0
26641;DHT22;14269;47.358;0.724;2024-03-23T13:25:49;22.0;23.0
26641;DHT22;14269;47.358;0.724;2024-03-23T13:28:24;22.0;23.0
26641;DHT22;14269;47.358;0.724;2024-03-23T13:30:57;23.0;23.0
26641;DHT22;14269;47.358;0.724;2024-03-23T13:33:38;23.0;22.0
26641;DHT22;14269;47.358;0.724;2024-03-23T13:36:09;23.0;23.0
26641;DHT22;14269;47.358;0.724;2024-03-23T13:38:41;22.0;24.0
26641;DHT22;14269;47.358;0.724;2024-03-23T13:41:13;23.0;23.0
26641;DHT22;14269;47.358;0.724;2024-03-23T13:43:44;24.0;23.0
26641;DHT22;14269;47.358;0.724;2024-03-23T13:46:16;24.0;23.0
26641;DHT22;14269;47.358;0.724;2024-03-23T13:48:48;24.0;21.0
26641;DHT22;14269;47.358;0.724;2024-03-23T13:51:24;23.0;22.0
26641;DHT22;14269;47.358;0.724;2024-03-23T13:54:01;23.0;21.0
26641;DHT22;14269;47.358;0.724;2024-03-23T13:56:33;24.0;21.0
26641;DHT22;14269;47.358;0.724;2024-03-23T13:59:04;23.0;22.0
26641;DHT22;14269;47.358;0.724;2024-03-23T14:01:36;24.0;21.0
26641;DHT22;14269;47.358;0.724;2024-03-23T14:04:08;23.0;22.0
26641;DHT22;14269;47.358;0.724;2024-03-23T14:06:39;23.0;22.0
26641;DHT22;14269;47.358;0.724;2024-03-23T14:09:11;22.0;22.0
26641;DHT22;14269;47.358;0.724;2024-03-23T14:11:43;23.0;22.0
26641;DHT22;14269;47.358;0.724;2024-03-23T14:14:17;23.0;22.0
26641;DHT22;14269;47.358;0.724;2024-03-23T14:16:56;23.0;21.0
26641;DHT22;14269;47.358;0.724;2024-03-23T14:19:27;24.0;21.0
26641;DHT22;14269;47.358;0.724;2024-03-23T14:22:00;24.0;22.0
26641;DHT22;14269;47.358;0.724;2024-03-23T14:24:41;24.0;21.0
26641;DHT22;14269;47.358;0.724;2024-03-23T14:27:13;22.0;22.0
26641;DHT22;14269;47.358;0.724;2024-03-23T14:29:46;22.0;23.0
26641;DHT22;14269;47.358;0.724;2024-03-23T14:32:26;23.0;22.0
26641;DHT22;14269;47.358;0.724;2024-03-23T14:34:58;23.0;21.0
26641;DHT22;14269;47.358;0.724;2024-03-23T14:37:30;22.0;22.0
26641;DHT22;14269;47.358;0.724;2024-03-23T14:40:03;22.0;23.0
26641;DHT22;14269;47.358;0.724;2024-03-23T14:42:43;21.0;24.0
26641;DHT22;14269;47.358;0.724;2024-03-23T14:45:15;22.0;23.0
26641;DHT22;14269;47.358;0.724;2024-03-23T14:47:58;21.0;24.0
26641;DHT22;14269;47.358;0.724;2024-03-23T14:50:38;21.0;24.0
26641;DHT22;14269;47.358;0.724;2024-03-23T14:53:09;21.0;24.0
26641;DHT22;14269;47.358;0.724;2024-03-23T14:55:47;21.0;25.0
26641;DHT22;14269;47.358;0.724;2024-03-23T14:58:24;21.0;24.0
26641;DHT22;14269;47.358;0.724;2024-03-23T15:01:06;21.0;24.0
26641;DHT22;14269;47.358;0.724;2024-03-23T15:03:47;23.0;23.0
26641;DHT22;14269;47.358;0.724;2024-03-23T15:06:18;23.0;23.0
26641;DHT22;14269;47.358;0.724;2024-03-23T15:08:50;23.0;22.0
26641;DHT22;14269;47.358;0.724;2024-03-23T15:11:21;23.0;22.0
26641;DHT22;14269;47.358;0.724;2024-03-23T15:13:53;23.0;23.0
26641;DHT22;14269;47.358;0.724;2024-03-23T15:16:25;23.0;23.0
26641;DHT22;14269;47.358;0.724;2024-03-23T15:19:06;23.0;22.0
26641;DHT22;14269;47.358;0.724;2024-03-23T15:21:38;21.0;23.0
26641;DHT22;14269;47.358;0.724;2024-03-23T15:24:11;22.0;23.0
26641;DHT22;14269;47.358;0.724;2024-03-23T15:26:42;22.0;23.0
26641;DHT22;14269;47.358;0.724;2024-03-23T15:29:23;22.0;23.0
26641;DHT22;14269;47.358;0.724;2024-03-23T15:31:55;22.0;23.0
26641;DHT22;14269;47.358;0.724;2024-03-23T15:34:36;22.0;23.0
26641;DHT22;14269;47.358;0.724;2024-03-23T15:37:08;22.0;24.0
26641;DHT22;14269;47.358;0.724;2024-03-23T15:39:41;21.0;24.0
26641;DHT22;14269;47.358;0.724;2024-03-23T15:42:22;21.0;25.0
26641;DHT22;14269;47.358;0.724;2024-03-23T15:44:53;21.0;25.0
26641;DHT22;14269;47.358;0.724;2024-03-23T15:47:25;21.0;25.0
26641;DHT22;14269;47.358;0.724;2024-03-23T15:49:56;21.0;26.0
26641;DHT22;14269;47.358;0.724;2024-03-23T15:52:29;20.0;26.0
26641;DHT22;14269;47.358;0.724;2024-03-23T15:55:00;20.0;27.0
26641;DHT22;14269;47.358;0.724;2024-03-23T15:57:33;21.0;26.0
26641;DHT22;14269;47.358;0.724;2024-03-23T16:00:13;21.0;25.0
26641;DHT22;14269;47.358;0.724;2024-03-23T16:02:46;21.0;25.0
26641;DHT22;14269;47.358;0.724;2024-03-23T16:05:28;22.0;25.0
26641;DHT22;14269;47.358;0.724;2024-03-23T16:08:08;20.0;27.0
26641;DHT22;14269;47.358;0.724;2024-03-23T16:10:40;21.0;26.0
26641;DHT22;14269;47.358;0.724;2024-03-23T16:13:11;20.0;26.0
26641;DHT22;14269;47.358;0.724;2024-03-23T16:15:43;20.0;27.0
26641;DHT22;14269;47.358;0.724;2024-03-23T16:18:15;20.0;27.0
26641;DHT22;14269;47.358;0.724;2024-03-23T16:20:52;20.0;27.0
26641;DHT22;14269;47.358;0.724;2024-03-23T16:23:29;20.0;28.0
26641;DHT22;14269;47.358;0.724;2024-03-23T16:26:01;21.0;27.0
26641;DHT22;14269;47.358;0.724;2024-03-23T16:28:42;20.0;28.0
26641;DHT22;14269;47.358;0.724;2024-03-23T16:31:13;21.0;28.0
26641;DHT22;14269;47.358;0.724;2024-03-23T16:33:55;20.0;28.0
26641;DHT22;14269;47.358;0.724;2024-03-23T16:36:27;20.0;28.0
26641;DHT22;14269;47.358;0.724;2024-03-23T16:38:58;20.0;29.0
26641;DHT22;14269;47.358;0.724;2024-03-23T16:41:30;20.0;29.0
26641;DHT22;14269;47.358;0.724;2024-03-23T16:44:02;20.0;29.0
26641;DHT22;14269;47.358;0.724;2024-03-23T16:46:33;20.0;29.0
26641;DHT22;14269;47.358;0.724;2024-03-23T16:49:05;19.0;30.0
26641;DHT22;14269;47.358;0.724;2024-03-23T16:51:47;20.0;30.0
26641;DHT22;14269;47.358;0.724;2024-03-23T16:54:18;20.0;30.0
26641;DHT22;14269;47.358;0.724;2024-03-23T16:56:50;19.0;31.0
26641;DHT22;14269;47.358;0.724;2024-03-23T16:59:22;19.0;31.0
26641;DHT22;14269;47.358;0.724;2024-03-23T17:01:53;20.0;30.0
26641;DHT22;14269;47.358;0.724;2024-03-23T17:04:26;20.0;31.0
26641;DHT22;14269;47.358;0.724;2024-03-23T17:06:57;20.0;31.0
26641;DHT22;14269;47.358;0.724;2024-03-23T17:09:28;20.0;30.0
26641;DHT22;14269;47.358;0.724;2024-03-23T17:12:10;20.0;30.0
26641;DHT22;14269;47.358;0.724;2024-03-23T17:14:42;20.0;31.0
26641;DHT22;14269;47.358;0.724;2024-03-23T17:17:13;20.0;30.0
26641;DHT22;14269;47.358;0.724;2024-03-23T17:19:45;20.0;30.0
26641;DHT22;14269;47.358;0.724;2024-03-23T17:22:17;20.0;31.0
26641;DHT22;14269;47.358;0.724;2024-03-23T17:24:51;20.0;31.0
26641;DHT22;14269;47.358;0.724;2024-03-23T17:27:30;20.0;31.0
26641;DHT22;14269;47.358;0.724;2024-03-23T17:30:02;20.0;31.0
26641;DHT22;14269;47.358;0.724;2024-03-23T17:32:33;20.0;31.0
26641;DHT22;14269;47.358;0.724;2024-03-23T17:35:06;19.0;32.0
26641;DHT22;14269;47.358;0.724;2024-03-23T17:37:37;19.0;32.0